Weather Data

Pearl Creek Farm: 8878 N Farm Road 75, Walnut Grove MO 65770

<== Previous Day (Tuesday 15 Jan 2008) | Next Day (Thursday 17 Jan 2008) ==>

Summary Precipitation Data For Wednesday 16 January 2008

ElementValueUnits
Precipitation0.07"
Notes(none)
SourceSpringfield-Branson National Airport (SGF)

Summary Temperature Data For Wednesday 16 January 2008

ElementValueUnits
High Temperature50 oF
Low Temperature32 oF
Average Temperature39 oF
High Humidity89 %
Low Humidity39 %
Average Humidity66 %
SourceSpringfield-Branson National Airport (SGF)

Detail Temperature Data For Wednesday 16 January 2008

Date / TimeTemp (F)RH (%)Dew Pt (F)Report Date / TimeSource
2008-01-16 19:52:00 41 70 32.0 2017-12-29 19:14:24.89625 Springfield-Branson National Airport (SGF)
2008-01-16 21:52:00 39 82 34.0 2017-12-29 19:14:24.89625 Springfield-Branson National Airport (SGF)
2008-01-16 22:52:00 38 86 34.0 2017-12-29 19:14:24.89625 Springfield-Branson National Airport (SGF)
2008-01-16 03:52:00 33 75 26.0 2017-12-29 19:14:24.89625 Springfield-Branson National Airport (SGF)
2008-01-16 04:52:00 33 75 26.0 2017-12-29 19:14:24.89625 Springfield-Branson National Airport (SGF)
2008-01-16 05:52:00 32 75 25.0 2017-12-29 19:14:24.89625 Springfield-Branson National Airport (SGF)
2008-01-16 06:52:00 33 75 26.0 2017-12-29 19:14:24.89625 Springfield-Branson National Airport (SGF)
2008-01-16 07:52:00 33 75 26.0 2017-12-29 19:14:24.89625 Springfield-Branson National Airport (SGF)
2008-01-16 08:52:00 35 72 27.0 2017-12-29 19:14:24.89625 Springfield-Branson National Airport (SGF)
2008-01-16 09:52:00 37 67 27.0 2017-12-29 19:14:24.89625 Springfield-Branson National Airport (SGF)
2008-01-16 10:52:00 41 60 28.0 2017-12-29 19:14:24.89625 Springfield-Branson National Airport (SGF)
2008-01-16 11:52:00 43 53 27.0 2017-12-29 19:14:24.89625 Springfield-Branson National Airport (SGF)
2008-01-16 12:52:00 46 47 27.0 2017-12-29 19:14:24.89625 Springfield-Branson National Airport (SGF)
2008-01-16 13:52:00 49 41 26.0 2017-12-29 19:14:24.89625 Springfield-Branson National Airport (SGF)
2008-01-16 14:52:00 50 39 26.0 2017-12-29 19:14:24.89625 Springfield-Branson National Airport (SGF)
2008-01-16 15:52:00 48 44 27.0 2017-12-29 19:14:24.89625 Springfield-Branson National Airport (SGF)
2008-01-16 16:52:00 46 51 29.0 2017-12-29 19:14:24.89625 Springfield-Branson National Airport (SGF)
2008-01-16 17:52:00 44 58 30.0 2017-12-29 19:14:24.89625 Springfield-Branson National Airport (SGF)
2008-01-16 18:52:00 43 60 30.0 2017-12-29 19:14:24.89625 Springfield-Branson National Airport (SGF)
2008-01-16 23:52:00 38 89 35.0 2017-12-29 19:14:24.89625 Springfield-Branson National Airport (SGF)
2008-01-16 00:52:00 34 73 26.0 2017-12-29 19:14:24.89625 Springfield-Branson National Airport (SGF)
2008-01-16 01:52:00 33 72 25.0 2017-12-29 19:14:24.89625 Springfield-Branson National Airport (SGF)
2008-01-16 02:52:00 33 72 25.0 2017-12-29 19:14:24.89625 Springfield-Branson National Airport (SGF)

A total of 23 rows are displayed.